sensor_id;sensor_type;location;lat;lon;timestamp;P1;durP1;ratioP1;P2;durP2;ratioP2
5898;SDS011;2975;50.956;6.962;2023-05-07T00:01:14;2.70;;;2.50;;
5898;SDS011;2975;50.956;6.962;2023-05-07T00:03:39;2.90;;;2.50;;
5898;SDS011;2975;50.956;6.962;2023-05-07T00:06:05;3.50;;;2.60;;
5898;SDS011;2975;50.956;6.962;2023-05-07T00:08:31;3.03;;;2.20;;
5898;SDS011;2975;50.956;6.962;2023-05-07T00:10:56;3.70;;;2.60;;
5898;SDS011;2975;50.956;6.962;2023-05-07T00:13:22;3.27;;;2.73;;
5898;SDS011;2975;50.956;6.962;2023-05-07T00:15:47;3.13;;;2.70;;
5898;SDS011;2975;50.956;6.962;2023-05-07T00:18:13;3.40;;;2.60;;
5898;SDS011;2975;50.956;6.962;2023-05-07T00:20:38;2.90;;;2.70;;
5898;SDS011;2975;50.956;6.962;2023-05-07T00:23:04;5.90;;;3.17;;
5898;SDS011;2975;50.956;6.962;2023-05-07T00:25:30;5.40;;;2.67;;
5898;SDS011;2975;50.956;6.962;2023-05-07T00:27:55;4.07;;;2.90;;
5898;SDS011;2975;50.956;6.962;2023-05-07T00:30:22;4.53;;;2.80;;
5898;SDS011;2975;50.956;6.962;2023-05-07T00:32:48;3.60;;;2.60;;
5898;SDS011;2975;50.956;6.962;2023-05-07T00:35:14;3.87;;;2.77;;
5898;SDS011;2975;50.956;6.962;2023-05-07T00:37:39;4.67;;;3.00;;
5898;SDS011;2975;50.956;6.962;2023-05-07T00:40:05;3.83;;;2.50;;
5898;SDS011;2975;50.956;6.962;2023-05-07T00:42:32;2.80;;;2.37;;
5898;SDS011;2975;50.956;6.962;2023-05-07T00:44:58;4.57;;;2.67;;
5898;SDS011;2975;50.956;6.962;2023-05-07T00:47:24;4.07;;;2.70;;
5898;SDS011;2975;50.956;6.962;2023-05-07T00:49:50;3.23;;;2.30;;
5898;SDS011;2975;50.956;6.962;2023-05-07T00:52:16;5.90;;;2.57;;
5898;SDS011;2975;50.956;6.962;2023-05-07T00:54:44;3.30;;;2.27;;
5898;SDS011;2975;50.956;6.962;2023-05-07T00:57:10;3.03;;;2.10;;
5898;SDS011;2975;50.956;6.962;2023-05-07T00:59:36;4.00;;;2.43;;
5898;SDS011;2975;50.956;6.962;2023-05-07T01:02:03;5.30;;;2.20;;
5898;SDS011;2975;50.956;6.962;2023-05-07T01:04:28;2.77;;;2.53;;
5898;SDS011;2975;50.956;6.962;2023-05-07T01:06:54;2.43;;;2.23;;
5898;SDS011;2975;50.956;6.962;2023-05-07T01:09:21;4.93;;;2.10;;
5898;SDS011;2975;50.956;6.962;2023-05-07T01:11:51;4.93;;;2.40;;
5898;SDS011;2975;50.956;6.962;2023-05-07T01:14:18;3.30;;;2.27;;
5898;SDS011;2975;50.956;6.962;2023-05-07T01:16:45;3.47;;;2.43;;
5898;SDS011;2975;50.956;6.962;2023-05-07T01:19:11;3.47;;;2.13;;
5898;SDS011;2975;50.956;6.962;2023-05-07T01:21:41;2.43;;;2.10;;
5898;SDS011;2975;50.956;6.962;2023-05-07T01:24:12;3.90;;;2.43;;
5898;SDS011;2975;50.956;6.962;2023-05-07T01:26:38;2.43;;;1.80;;
5898;SDS011;2975;50.956;6.962;2023-05-07T01:29:04;3.33;;;1.60;;
5898;SDS011;2975;50.956;6.962;2023-05-07T01:31:29;4.33;;;1.97;;
5898;SDS011;2975;50.956;6.962;2023-05-07T01:33:55;5.27;;;1.80;;
5898;SDS011;2975;50.956;6.962;2023-05-07T01:36:23;3.57;;;2.20;;
5898;SDS011;2975;50.956;6.962;2023-05-07T01:38:52;3.07;;;2.00;;
5898;SDS011;2975;50.956;6.962;2023-05-07T01:41:18;3.43;;;1.77;;
5898;SDS011;2975;50.956;6.962;2023-05-07T01:43:44;3.40;;;1.80;;
5898;SDS011;2975;50.956;6.962;2023-05-07T01:46:12;1.90;;;1.70;;
5898;SDS011;2975;50.956;6.962;2023-05-07T01:48:38;3.03;;;1.93;;
5898;SDS011;2975;50.956;6.962;2023-05-07T01:51:04;2.50;;;1.73;;
5898;SDS011;2975;50.956;6.962;2023-05-07T01:53:35;2.20;;;1.90;;
5898;SDS011;2975;50.956;6.962;2023-05-07T01:56:01;2.97;;;1.90;;
5898;SDS011;2975;50.956;6.962;2023-05-07T01:58:27;3.23;;;1.90;;
5898;SDS011;2975;50.956;6.962;2023-05-07T02:00:52;3.23;;;1.93;;
5898;SDS011;2975;50.956;6.962;2023-05-07T02:03:18;3.37;;;1.87;;
5898;SDS011;2975;50.956;6.962;2023-05-07T02:05:43;2.67;;;1.93;;
5898;SDS011;2975;50.956;6.962;2023-05-07T02:08:09;4.17;;;2.00;;
5898;SDS011;2975;50.956;6.962;2023-05-07T02:10:35;3.60;;;2.17;;
5898;SDS011;2975;50.956;6.962;2023-05-07T02:13:01;2.10;;;1.90;;
5898;SDS011;2975;50.956;6.962;2023-05-07T02:15:27;2.30;;;2.10;;
5898;SDS011;2975;50.956;6.962;2023-05-07T02:18:05;2.47;;;2.00;;
5898;SDS011;2975;50.956;6.962;2023-05-07T02:20:32;1.87;;;1.77;;
5898;SDS011;2975;50.956;6.962;2023-05-07T02:22:58;3.67;;;1.97;;
5898;SDS011;2975;50.956;6.962;2023-05-07T02:25:24;3.13;;;2.23;;
5898;SDS011;2975;50.956;6.962;2023-05-07T02:27:49;2.50;;;1.97;;
5898;SDS011;2975;50.956;6.962;2023-05-07T02:30:15;4.33;;;2.20;;
5898;SDS011;2975;50.956;6.962;2023-05-07T02:32:40;5.03;;;2.10;;
5898;SDS011;2975;50.956;6.962;2023-05-07T02:35:06;4.73;;;2.27;;
5898;SDS011;2975;50.956;6.962;2023-05-07T02:37:32;6.57;;;2.53;;
5898;SDS011;2975;50.956;6.962;2023-05-07T02:39:58;3.40;;;2.37;;
5898;SDS011;2975;50.956;6.962;2023-05-07T02:42:23;3.70;;;1.93;;
5898;SDS011;2975;50.956;6.962;2023-05-07T02:44:49;2.97;;;2.30;;
5898;SDS011;2975;50.956;6.962;2023-05-07T02:47:14;4.50;;;2.30;;
5898;SDS011;2975;50.956;6.962;2023-05-07T02:49:40;3.43;;;2.37;;
5898;SDS011;2975;50.956;6.962;2023-05-07T02:52:06;3.03;;;2.30;;
5898;SDS011;2975;50.956;6.962;2023-05-07T02:54:32;2.33;;;2.10;;
5898;SDS011;2975;50.956;6.962;2023-05-07T02:56:57;3.97;;;2.17;;
5898;SDS011;2975;50.956;6.962;2023-05-07T02:59:23;3.50;;;2.10;;
5898;SDS011;2975;50.956;6.962;2023-05-07T03:01:51;2.30;;;2.10;;
5898;SDS011;2975;50.956;6.962;2023-05-07T03:04:17;5.10;;;2.67;;
5898;SDS011;2975;50.956;6.962;2023-05-07T03:06:42;2.40;;;2.20;;
5898;SDS011;2975;50.956;6.962;2023-05-07T03:09:08;7.60;;;2.37;;
5898;SDS011;2975;50.956;6.962;2023-05-07T03:11:34;3.07;;;2.23;;
5898;SDS011;2975;50.956;6.962;2023-05-07T03:14:00;5.47;;;2.50;;
5898;SDS011;2975;50.956;6.962;2023-05-07T03:16:26;3.20;;;2.00;;
5898;SDS011;2975;50.956;6.962;2023-05-07T03:18:52;3.00;;;2.10;;
5898;SDS011;2975;50.956;6.962;2023-05-07T03:21:18;1.80;;;1.70;;
5898;SDS011;2975;50.956;6.962;2023-05-07T03:23:44;3.90;;;2.03;;
5898;SDS011;2975;50.956;6.962;2023-05-07T03:26:09;3.03;;;2.13;;
5898;SDS011;2975;50.956;6.962;2023-05-07T03:28:36;3.23;;;1.97;;
5898;SDS011;2975;50.956;6.962;2023-05-07T03:31:02;3.23;;;2.40;;
5898;SDS011;2975;50.956;6.962;2023-05-07T03:33:27;3.23;;;1.90;;
5898;SDS011;2975;50.956;6.962;2023-05-07T03:35:53;2.97;;;1.73;;
5898;SDS011;2975;50.956;6.962;2023-05-07T03:38:19;5.20;;;2.10;;
5898;SDS011;2975;50.956;6.962;2023-05-07T03:40:44;2.90;;;1.80;;
5898;SDS011;2975;50.956;6.962;2023-05-07T03:43:10;2.70;;;1.63;;
5898;SDS011;2975;50.956;6.962;2023-05-07T03:45:35;4.70;;;1.90;;
5898;SDS011;2975;50.956;6.962;2023-05-07T03:48:01;3.50;;;2.10;;
5898;SDS011;2975;50.956;6.962;2023-05-07T03:50:26;1.93;;;1.80;;
5898;SDS011;2975;50.956;6.962;2023-05-07T03:52:52;4.33;;;2.00;;
5898;SDS011;2975;50.956;6.962;2023-05-07T03:55:18;6.03;;;2.43;;
5898;SDS011;2975;50.956;6.962;2023-05-07T03:57:43;2.50;;;2.03;;
5898;SDS011;2975;50.956;6.962;2023-05-07T04:00:09;5.93;;;2.10;;
5898;SDS011;2975;50.956;6.962;2023-05-07T04:02:35;4.50;;;1.83;;
5898;SDS011;2975;50.956;6.962;2023-05-07T04:05:01;2.43;;;2.00;;
5898;SDS011;2975;50.956;6.962;2023-05-07T04:07:26;2.77;;;2.00;;
5898;SDS011;2975;50.956;6.962;2023-05-07T04:09:52;2.53;;;2.20;;
5898;SDS011;2975;50.956;6.962;2023-05-07T04:12:17;3.70;;;2.00;;
5898;SDS011;2975;50.956;6.962;2023-05-07T04:14:43;3.57;;;2.17;;
5898;SDS011;2975;50.956;6.962;2023-05-07T04:17:09;3.63;;;2.23;;
5898;SDS011;2975;50.956;6.962;2023-05-07T04:19:35;2.23;;;2.03;;
5898;SDS011;2975;50.956;6.962;2023-05-07T04:22:01;4.40;;;2.00;;
5898;SDS011;2975;50.956;6.962;2023-05-07T04:24:27;2.33;;;1.97;;
5898;SDS011;2975;50.956;6.962;2023-05-07T04:26:55;2.70;;;2.07;;
5898;SDS011;2975;50.956;6.962;2023-05-07T04:29:21;1.93;;;1.83;;
5898;SDS011;2975;50.956;6.962;2023-05-07T04:31:46;2.13;;;1.70;;
5898;SDS011;2975;50.956;6.962;2023-05-07T04:34:12;3.40;;;1.80;;
5898;SDS011;2975;50.956;6.962;2023-05-07T04:36:39;3.30;;;2.20;;
5898;SDS011;2975;50.956;6.962;2023-05-07T04:39:04;3.00;;;1.90;;
5898;SDS011;2975;50.956;6.962;2023-05-07T04:41:30;1.87;;;1.70;;
5898;SDS011;2975;50.956;6.962;2023-05-07T04:43:56;3.40;;;2.00;;
5898;SDS011;2975;50.956;6.962;2023-05-07T04:46:23;4.87;;;2.33;;
5898;SDS011;2975;50.956;6.962;2023-05-07T04:48:49;3.47;;;2.30;;
5898;SDS011;2975;50.956;6.962;2023-05-07T04:51:15;3.73;;;2.10;;
5898;SDS011;2975;50.956;6.962;2023-05-07T04:53:41;2.40;;;2.20;;
5898;SDS011;2975;50.956;6.962;2023-05-07T04:56:08;2.73;;;2.00;;
5898;SDS011;2975;50.956;6.962;2023-05-07T04:58:33;3.23;;;2.33;;
5898;SDS011;2975;50.956;6.962;2023-05-07T05:00:59;4.37;;;1.80;;
5898;SDS011;2975;50.956;6.962;2023-05-07T05:03:25;2.13;;;1.87;;
5898;SDS011;2975;50.956;6.962;2023-05-07T05:05:51;2.30;;;1.60;;
5898;SDS011;2975;50.956;6.962;2023-05-07T05:08:17;5.53;;;1.90;;
5898;SDS011;2975;50.956;6.962;2023-05-07T05:10:43;2.20;;;1.80;;
5898;SDS011;2975;50.956;6.962;2023-05-07T05:13:09;3.13;;;1.63;;
5898;SDS011;2975;50.956;6.962;2023-05-07T05:15:37;1.97;;;1.70;;
5898;SDS011;2975;50.956;6.962;2023-05-07T05:18:03;2.33;;;1.53;;
5898;SDS011;2975;50.956;6.962;2023-05-07T05:20:29;3.50;;;1.47;;
5898;SDS011;2975;50.956;6.962;2023-05-07T05:22:54;3.07;;;1.63;;
5898;SDS011;2975;50.956;6.962;2023-05-07T05:25:20;2.27;;;1.97;;
5898;SDS011;2975;50.956;6.962;2023-05-07T05:27:45;2.77;;;1.73;;
5898;SDS011;2975;50.956;6.962;2023-05-07T05:30:11;3.00;;;1.60;;
5898;SDS011;2975;50.956;6.962;2023-05-07T05:32:37;2.13;;;1.53;;
5898;SDS011;2975;50.956;6.962;2023-05-07T05:35:03;1.60;;;1.50;;
5898;SDS011;2975;50.956;6.962;2023-05-07T05:37:29;1.80;;;1.70;;
5898;SDS011;2975;50.956;6.962;2023-05-07T05:39:56;1.90;;;1.60;;
5898;SDS011;2975;50.956;6.962;2023-05-07T05:42:23;1.77;;;1.60;;
5898;SDS011;2975;50.956;6.962;2023-05-07T05:44:48;4.00;;;1.70;;
5898;SDS011;2975;50.956;6.962;2023-05-07T05:47:14;2.03;;;1.63;;
5898;SDS011;2975;50.956;6.962;2023-05-07T05:49:40;1.87;;;1.50;;
5898;SDS011;2975;50.956;6.962;2023-05-07T05:52:05;2.43;;;1.70;;
5898;SDS011;2975;50.956;6.962;2023-05-07T05:54:31;1.87;;;1.40;;
5898;SDS011;2975;50.956;6.962;2023-05-07T05:56:56;1.93;;;1.83;;
5898;SDS011;2975;50.956;6.962;2023-05-07T05:59:22;1.30;;;1.20;;
5898;SDS011;2975;50.956;6.962;2023-05-07T06:01:48;3.23;;;1.50;;
5898;SDS011;2975;50.956;6.962;2023-05-07T06:04:14;2.47;;;1.80;;
5898;SDS011;2975;50.956;6.962;2023-05-07T06:06:39;1.53;;;1.43;;
5898;SDS011;2975;50.956;6.962;2023-05-07T06:09:05;1.93;;;1.67;;
5898;SDS011;2975;50.956;6.962;2023-05-07T06:11:31;2.30;;;1.57;;
5898;SDS011;2975;50.956;6.962;2023-05-07T06:13:57;2.53;;;1.60;;
5898;SDS011;2975;50.956;6.962;2023-05-07T06:16:24;1.70;;;1.37;;
5898;SDS011;2975;50.956;6.962;2023-05-07T06:18:49;2.07;;;1.67;;
5898;SDS011;2975;50.956;6.962;2023-05-07T06:21:15;2.20;;;1.40;;
5898;SDS011;2975;50.956;6.962;2023-05-07T06:23:41;3.67;;;1.60;;
5898;SDS011;2975;50.956;6.962;2023-05-07T06:26:06;1.77;;;1.50;;
5898;SDS011;2975;50.956;6.962;2023-05-07T06:28:32;3.90;;;1.37;;
5898;SDS011;2975;50.956;6.962;2023-05-07T06:31:13;3.23;;;1.57;;
5898;SDS011;2975;50.956;6.962;2023-05-07T06:33:40;2.93;;;2.07;;
5898;SDS011;2975;50.956;6.962;2023-05-07T06:36:06;2.00;;;1.30;;
5898;SDS011;2975;50.956;6.962;2023-05-07T06:38:32;5.67;;;2.13;;
5898;SDS011;2975;50.956;6.962;2023-05-07T06:40:57;2.53;;;1.53;;
5898;SDS011;2975;50.956;6.962;2023-05-07T06:43:23;3.37;;;1.60;;
5898;SDS011;2975;50.956;6.962;2023-05-07T06:45:48;2.13;;;1.27;;
5898;SDS011;2975;50.956;6.962;2023-05-07T06:48:14;2.13;;;1.33;;
5898;SDS011;2975;50.956;6.962;2023-05-07T06:50:40;2.90;;;1.57;;
5898;SDS011;2975;50.956;6.962;2023-05-07T06:53:06;1.50;;;1.40;;
5898;SDS011;2975;50.956;6.962;2023-05-07T06:55:32;2.93;;;1.73;;
5898;SDS011;2975;50.956;6.962;2023-05-07T06:57:57;1.93;;;1.40;;
5898;SDS011;2975;50.956;6.962;2023-05-07T07:00:25;1.30;;;1.20;;
5898;SDS011;2975;50.956;6.962;2023-05-07T07:02:52;1.47;;;1.30;;
5898;SDS011;2975;50.956;6.962;2023-05-07T07:05:18;2.23;;;1.20;;
5898;SDS011;2975;50.956;6.962;2023-05-07T07:07:44;3.40;;;1.50;;
5898;SDS011;2975;50.956;6.962;2023-05-07T07:10:09;4.97;;;2.20;;
5898;SDS011;2975;50.956;6.962;2023-05-07T07:12:35;1.93;;;1.60;;
5898;SDS011;2975;50.956;6.962;2023-05-07T07:15:00;1.50;;;1.40;;
5898;SDS011;2975;50.956;6.962;2023-05-07T07:17:27;2.83;;;1.47;;
5898;SDS011;2975;50.956;6.962;2023-05-07T07:19:53;3.53;;;1.47;;
5898;SDS011;2975;50.956;6.962;2023-05-07T07:22:19;5.03;;;1.60;;
5898;SDS011;2975;50.956;6.962;2023-05-07T07:24:44;2.30;;;1.23;;
5898;SDS011;2975;50.956;6.962;2023-05-07T07:27:10;1.40;;;1.30;;
5898;SDS011;2975;50.956;6.962;2023-05-07T07:29:35;2.87;;;1.40;;
5898;SDS011;2975;50.956;6.962;2023-05-07T07:32:01;5.67;;;1.60;;
5898;SDS011;2975;50.956;6.962;2023-05-07T07:34:27;1.50;;;1.37;;
5898;SDS011;2975;50.956;6.962;2023-05-07T07:36:52;4.83;;;1.73;;
5898;SDS011;2975;50.956;6.962;2023-05-07T07:39:18;1.90;;;1.30;;
5898;SDS011;2975;50.956;6.962;2023-05-07T07:41:43;1.87;;;1.40;;
5898;SDS011;2975;50.956;6.962;2023-05-07T07:44:09;2.97;;;1.47;;
5898;SDS011;2975;50.956;6.962;2023-05-07T07:46:37;1.80;;;1.27;;
5898;SDS011;2975;50.956;6.962;2023-05-07T07:49:03;1.50;;;1.40;;
5898;SDS011;2975;50.956;6.962;2023-05-07T07:51:29;1.77;;;1.50;;
5898;SDS011;2975;50.956;6.962;2023-05-07T07:53:55;3.13;;;1.40;;
5898;SDS011;2975;50.956;6.962;2023-05-07T07:56:22;1.87;;;1.50;;
5898;SDS011;2975;50.956;6.962;2023-05-07T07:58:48;3.00;;;1.20;;
5898;SDS011;2975;50.956;6.962;2023-05-07T08:01:14;4.25;;;1.50;;
5898;SDS011;2975;50.956;6.962;2023-05-07T08:03:39;2.40;;;1.87;;
5898;SDS011;2975;50.956;6.962;2023-05-07T08:06:05;1.75;;;1.27;;
5898;SDS011;2975;50.956;6.962;2023-05-07T08:08:31;2.83;;;1.25;;
5898;SDS011;2975;50.956;6.962;2023-05-07T08:10:56;1.73;;;1.40;;
5898;SDS011;2975;50.956;6.962;2023-05-07T08:13:22;5.57;;;1.48;;
5898;SDS011;2975;50.956;6.962;2023-05-07T08:15:48;3.55;;;1.58;;
5898;SDS011;2975;50.956;6.962;2023-05-07T08:18:13;1.90;;;1.58;;
5898;SDS011;2975;50.956;6.962;2023-05-07T08:20:40;5.30;;;1.45;;
5898;SDS011;2975;50.956;6.962;2023-05-07T08:23:06;2.33;;;1.30;;
5898;SDS011;2975;50.956;6.962;2023-05-07T08:25:35;2.93;;;1.40;;
5898;SDS011;2975;50.956;6.962;2023-05-07T08:28:01;1.88;;;1.42;;
5898;SDS011;2975;50.956;6.962;2023-05-07T08:30:28;2.53;;;1.25;;
5898;SDS011;2975;50.956;6.962;2023-05-07T08:32:54;2.78;;;1.30;;
5898;SDS011;2975;50.956;6.962;2023-05-07T08:35:19;2.53;;;1.70;;
5898;SDS011;2975;50.956;6.962;2023-05-07T08:37:45;2.25;;;1.27;;
5898;SDS011;2975;50.956;6.962;2023-05-07T08:40:10;1.80;;;1.37;;
5898;SDS011;2975;50.956;6.962;2023-05-07T08:42:36;1.63;;;1.02;;
5898;SDS011;2975;50.956;6.962;2023-05-07T08:45:03;1.40;;;1.27;;
5898;SDS011;2975;50.956;6.962;2023-05-07T08:47:34;3.42;;;1.80;;
5898;SDS011;2975;50.956;6.962;2023-05-07T08:50:05;3.45;;;1.48;;
5898;SDS011;2975;50.956;6.962;2023-05-07T08:52:31;3.42;;;1.27;;
5898;SDS011;2975;50.956;6.962;2023-05-07T08:54:57;1.88;;;1.23;;
5898;SDS011;2975;50.956;6.962;2023-05-07T08:57:24;1.30;;;1.20;;
5898;SDS011;2975;50.956;6.962;2023-05-07T08:59:49;1.48;;;1.38;;
5898;SDS011;2975;50.956;6.962;2023-05-07T09:02:15;1.85;;;1.40;;
5898;SDS011;2975;50.956;6.962;2023-05-07T09:04:41;2.92;;;1.40;;
5898;SDS011;2975;50.956;6.962;2023-05-07T09:07:07;2.15;;;1.30;;
5898;SDS011;2975;50.956;6.962;2023-05-07T09:09:33;1.88;;;1.20;;
5898;SDS011;2975;50.956;6.962;2023-05-07T09:11:59;1.83;;;1.40;;
5898;SDS011;2975;50.956;6.962;2023-05-07T09:14:24;1.35;;;1.25;;
5898;SDS011;2975;50.956;6.962;2023-05-07T09:16:52;4.50;;;1.42;;
5898;SDS011;2975;50.956;6.962;2023-05-07T09:19:22;2.30;;;1.50;;
5898;SDS011;2975;50.956;6.962;2023-05-07T09:21:48;1.85;;;1.23;;
5898;SDS011;2975;50.956;6.962;2023-05-07T09:24:15;2.30;;;1.63;;
5898;SDS011;2975;50.956;6.962;2023-05-07T09:26:41;1.30;;;1.20;;
5898;SDS011;2975;50.956;6.962;2023-05-07T09:29:09;3.78;;;1.40;;
5898;SDS011;2975;50.956;6.962;2023-05-07T09:31:38;1.23;;;1.23;;
5898;SDS011;2975;50.956;6.962;2023-05-07T09:34:04;3.40;;;1.25;;
5898;SDS011;2975;50.956;6.962;2023-05-07T09:36:31;2.53;;;1.60;;
5898;SDS011;2975;50.956;6.962;2023-05-07T09:38:59;3.05;;;1.40;;
5898;SDS011;2975;50.956;6.962;2023-05-07T09:41:25;1.35;;;1.20;;
5898;SDS011;2975;50.956;6.962;2023-05-07T09:43:54;3.05;;;1.60;;
5898;SDS011;2975;50.956;6.962;2023-05-07T09:46:20;1.90;;;1.55;;
5898;SDS011;2975;50.956;6.962;2023-05-07T09:48:52;3.70;;;1.48;;
5898;SDS011;2975;50.956;6.962;2023-05-07T09:51:32;1.58;;;1.33;;
5898;SDS011;2975;50.956;6.962;2023-05-07T09:54:04;1.67;;;1.58;;
5898;SDS011;2975;50.956;6.962;2023-05-07T09:56:31;2.35;;;1.50;;
5898;SDS011;2975;50.956;6.962;2023-05-07T09:58:58;3.38;;;1.42;;
5898;SDS011;2975;50.956;6.962;2023-05-07T10:01:25;3.08;;;1.40;;
5898;SDS011;2975;50.956;6.962;2023-05-07T10:03:52;2.05;;;1.30;;
5898;SDS011;2975;50.956;6.962;2023-05-07T10:06:19;4.03;;;1.40;;
5898;SDS011;2975;50.956;6.962;2023-05-07T10:08:45;2.28;;;1.52;;
5898;SDS011;2975;50.956;6.962;2023-05-07T10:11:11;1.50;;;1.40;;
5898;SDS011;2975;50.956;6.962;2023-05-07T10:13:40;1.40;;;1.30;;
5898;SDS011;2975;50.956;6.962;2023-05-07T10:16:07;3.88;;;1.40;;
5898;SDS011;2975;50.956;6.962;2023-05-07T10:18:33;3.17;;;1.70;;
5898;SDS011;2975;50.956;6.962;2023-05-07T10:21:04;2.27;;;1.37;;
5898;SDS011;2975;50.956;6.962;2023-05-07T10:23:32;2.10;;;1.30;;
5898;SDS011;2975;50.956;6.962;2023-05-07T10:25:59;2.03;;;1.50;;
5898;SDS011;2975;50.956;6.962;2023-05-07T10:28:27;1.65;;;1.45;;
5898;SDS011;2975;50.956;6.962;2023-05-07T10:31:01;4.68;;;1.52;;
5898;SDS011;2975;50.956;6.962;2023-05-07T10:33:48;2.08;;;1.60;;
5898;SDS011;2975;50.956;6.962;2023-05-07T10:36:16;2.42;;;1.30;;
5898;SDS011;2975;50.956;6.962;2023-05-07T10:38:42;1.65;;;1.20;;
5898;SDS011;2975;50.956;6.962;2023-05-07T10:41:08;1.50;;;1.25;;
5898;SDS011;2975;50.956;6.962;2023-05-07T10:43:38;1.30;;;1.20;;
5898;SDS011;2975;50.956;6.962;2023-05-07T10:46:18;1.20;;;1.10;;
5898;SDS011;2975;50.956;6.962;2023-05-07T10:51:25;3.90;;;1.40;;
5898;SDS011;2975;50.956;6.962;2023-05-07T10:56:36;4.28;;;1.27;;
5898;SDS011;2975;50.956;6.962;2023-05-07T11:01:55;2.17;;;1.20;;
5898;SDS011;2975;50.956;6.962;2023-05-07T11:04:29;2.13;;;1.10;;
5898;SDS011;2975;50.956;6.962;2023-05-07T11:15:05;1.20;;;1.10;;
5898;SDS011;2975;50.956;6.962;2023-05-07T11:17:31;2.10;;;0.98;;
5898;SDS011;2975;50.956;6.962;2023-05-07T11:20:00;1.15;;;1.08;;
5898;SDS011;2975;50.956;6.962;2023-05-07T11:24:55;3.42;;;1.08;;
5898;SDS011;2975;50.956;6.962;2023-05-07T11:27:24;0.95;;;0.70;;
5898;SDS011;2975;50.956;6.962;2023-05-07T11:29:50;1.52;;;0.90;;
5898;SDS011;2975;50.956;6.962;2023-05-07T11:32:22;1.45;;;1.00;;
5898;SDS011;2975;50.956;6.962;2023-05-07T11:34:51;2.13;;;1.35;;
5898;SDS011;2975;50.956;6.962;2023-05-07T11:37:18;1.52;;;1.10;;
5898;SDS011;2975;50.956;6.962;2023-05-07T11:39:44;2.53;;;1.40;;
5898;SDS011;2975;50.956;6.962;2023-05-07T11:42:29;1.92;;;1.10;;
5898;SDS011;2975;50.956;6.962;2023-05-07T11:44:56;2.13;;;1.02;;
5898;SDS011;2975;50.956;6.962;2023-05-07T11:47:22;1.20;;;1.10;;
5898;SDS011;2975;50.956;6.962;2023-05-07T11:49:48;2.80;;;1.20;;
5898;SDS011;2975;50.956;6.962;2023-05-07T11:52:15;2.88;;;1.00;;
5898;SDS011;2975;50.956;6.962;2023-05-07T11:54:44;2.17;;;1.30;;
5898;SDS011;2975;50.956;6.962;2023-05-07T11:57:17;1.77;;;1.40;;
5898;SDS011;2975;50.956;6.962;2023-05-07T11:59:43;1.10;;;1.00;;
5898;SDS011;2975;50.956;6.962;2023-05-07T12:02:16;0.95;;;0.95;;
5898;SDS011;2975;50.956;6.962;2023-05-07T12:04:42;1.67;;;1.02;;
5898;SDS011;2975;50.956;6.962;2023-05-07T12:07:15;1.00;;;1.00;;
5898;SDS011;2975;50.956;6.962;2023-05-07T12:09:41;1.10;;;1.10;;
5898;SDS011;2975;50.956;6.962;2023-05-07T12:12:07;1.90;;;1.27;;
5898;SDS011;2975;50.956;6.962;2023-05-07T12:14:32;0.90;;;0.90;;
5898;SDS011;2975;50.956;6.962;2023-05-07T12:17:02;1.50;;;1.00;;
5898;SDS011;2975;50.956;6.962;2023-05-07T12:19:29;2.30;;;1.48;;
5898;SDS011;2975;50.956;6.962;2023-05-07T12:21:56;1.85;;;1.27;;
5898;SDS011;2975;50.956;6.962;2023-05-07T12:24:22;1.50;;;1.40;;
5898;SDS011;2975;50.956;6.962;2023-05-07T12:26:48;1.85;;;1.15;;
5898;SDS011;2975;50.956;6.962;2023-05-07T12:29:13;6.15;;;2.03;;
5898;SDS011;2975;50.956;6.962;2023-05-07T12:31:42;1.00;;;0.88;;
5898;SDS011;2975;50.956;6.962;2023-05-07T12:34:10;2.45;;;1.30;;
5898;SDS011;2975;50.956;6.962;2023-05-07T12:36:39;1.85;;;1.23;;
5898;SDS011;2975;50.956;6.962;2023-05-07T12:39:08;1.23;;;1.15;;
5898;SDS011;2975;50.956;6.962;2023-05-07T12:41:53;2.72;;;1.42;;
5898;SDS011;2975;50.956;6.962;2023-05-07T12:44:23;1.48;;;1.20;;
5898;SDS011;2975;50.956;6.962;2023-05-07T12:46:50;1.33;;;0.95;;
5898;SDS011;2975;50.956;6.962;2023-05-07T12:49:16;1.63;;;1.33;;
5898;SDS011;2975;50.956;6.962;2023-05-07T12:51:48;2.95;;;1.13;;
5898;SDS011;2975;50.956;6.962;2023-05-07T12:54:27;1.15;;;1.10;;
5898;SDS011;2975;50.956;6.962;2023-05-07T12:57:27;2.85;;;1.02;;
5898;SDS011;2975;50.956;6.962;2023-05-07T12:59:46;2.25;;;1.33;;
5898;SDS011;2975;50.956;6.962;2023-05-07T13:02:11;1.00;;;1.00;;
5898;SDS011;2975;50.956;6.962;2023-05-07T13:04:37;2.13;;;1.17;;
5898;SDS011;2975;50.956;6.962;2023-05-07T13:07:03;4.30;;;1.17;;
5898;SDS011;2975;50.956;6.962;2023-05-07T13:09:28;1.92;;;1.30;;
5898;SDS011;2975;50.956;6.962;2023-05-07T13:11:55;1.27;;;1.17;;
5898;SDS011;2975;50.956;6.962;2023-05-07T13:14:21;1.27;;;1.00;;
5898;SDS011;2975;50.956;6.962;2023-05-07T13:16:47;1.85;;;1.17;;
5898;SDS011;2975;50.956;6.962;2023-05-07T13:19:13;1.10;;;1.10;;
5898;SDS011;2975;50.956;6.962;2023-05-07T13:21:38;1.25;;;1.17;;
5898;SDS011;2975;50.956;6.962;2023-05-07T13:24:04;2.15;;;1.05;;
5898;SDS011;2975;50.956;6.962;2023-05-07T13:26:30;1.30;;;1.20;;
5898;SDS011;2975;50.956;6.962;2023-05-07T13:28:56;1.65;;;1.35;;
5898;SDS011;2975;50.956;6.962;2023-05-07T13:31:22;3.00;;;1.70;;
5898;SDS011;2975;50.956;6.962;2023-05-07T13:33:49;3.35;;;1.42;;
5898;SDS011;2975;50.956;6.962;2023-05-07T13:36:15;1.60;;;1.50;;
5898;SDS011;2975;50.956;6.962;2023-05-07T13:38:41;2.35;;;1.40;;
5898;SDS011;2975;50.956;6.962;2023-05-07T13:41:06;4.22;;;2.00;;
5898;SDS011;2975;50.956;6.962;2023-05-07T13:43:32;2.05;;;1.83;;
5898;SDS011;2975;50.956;6.962;2023-05-07T13:45:58;3.30;;;1.90;;
5898;SDS011;2975;50.956;6.962;2023-05-07T13:48:25;2.63;;;1.50;;
5898;SDS011;2975;50.956;6.962;2023-05-07T13:50:50;4.80;;;1.80;;
5898;SDS011;2975;50.956;6.962;2023-05-07T13:53:16;2.78;;;1.50;;
5898;SDS011;2975;50.956;6.962;2023-05-07T13:55:43;1.90;;;1.17;;
5898;SDS011;2975;50.956;6.962;2023-05-07T13:58:09;3.20;;;1.50;;
5898;SDS011;2975;50.956;6.962;2023-05-07T14:00:35;1.88;;;1.30;;
5898;SDS011;2975;50.956;6.962;2023-05-07T14:03:01;1.30;;;1.20;;
5898;SDS011;2975;50.956;6.962;2023-05-07T14:05:26;1.45;;;1.33;;
5898;SDS011;2975;50.956;6.962;2023-05-07T14:07:53;1.15;;;1.10;;
5898;SDS011;2975;50.956;6.962;2023-05-07T14:10:22;2.05;;;1.40;;
5898;SDS011;2975;50.956;6.962;2023-05-07T14:12:48;1.45;;;1.30;;
5898;SDS011;2975;50.956;6.962;2023-05-07T14:15:13;2.05;;;1.58;;
5898;SDS011;2975;50.956;6.962;2023-05-07T14:17:39;2.00;;;1.30;;
5898;SDS011;2975;50.956;6.962;2023-05-07T14:20:05;1.63;;;1.40;;
5898;SDS011;2975;50.956;6.962;2023-05-07T14:22:31;1.67;;;1.25;;
5898;SDS011;2975;50.956;6.962;2023-05-07T14:24:57;3.90;;;1.48;;
5898;SDS011;2975;50.956;6.962;2023-05-07T14:27:23;1.00;;;1.00;;
5898;SDS011;2975;50.956;6.962;2023-05-07T14:29:48;2.92;;;1.50;;
5898;SDS011;2975;50.956;6.962;2023-05-07T14:32:16;1.60;;;1.50;;
5898;SDS011;2975;50.956;6.962;2023-05-07T14:34:43;1.95;;;1.70;;
5898;SDS011;2975;50.956;6.962;2023-05-07T14:37:09;1.98;;;1.85;;
5898;SDS011;2975;50.956;6.962;2023-05-07T14:39:35;1.88;;;1.52;;
5898;SDS011;2975;50.956;6.962;2023-05-07T14:42:00;1.77;;;1.58;;
5898;SDS011;2975;50.956;6.962;2023-05-07T14:44:26;1.70;;;1.60;;
5898;SDS011;2975;50.956;6.962;2023-05-07T14:46:52;2.28;;;1.67;;
5898;SDS011;2975;50.956;6.962;2023-05-07T14:49:17;2.53;;;1.70;;
5898;SDS011;2975;50.956;6.962;2023-05-07T14:51:46;2.03;;;1.60;;
5898;SDS011;2975;50.956;6.962;2023-05-07T14:54:12;2.72;;;1.50;;
5898;SDS011;2975;50.956;6.962;2023-05-07T14:56:39;6.00;;;2.15;;
5898;SDS011;2975;50.956;6.962;2023-05-07T14:59:05;2.63;;;1.65;;
5898;SDS011;2975;50.956;6.962;2023-05-07T15:01:31;3.67;;;2.13;;
5898;SDS011;2975;50.956;6.962;2023-05-07T15:03:59;2.45;;;1.60;;
5898;SDS011;2975;50.956;6.962;2023-05-07T15:06:24;2.05;;;1.60;;
5898;SDS011;2975;50.956;6.962;2023-05-07T15:08:51;2.00;;;1.40;;
5898;SDS011;2975;50.956;6.962;2023-05-07T15:11:17;1.90;;;1.20;;
5898;SDS011;2975;50.956;6.962;2023-05-07T15:13:43;1.55;;;1.45;;
5898;SDS011;2975;50.956;6.962;2023-05-07T15:16:08;1.42;;;1.15;;
5898;SDS011;2975;50.956;6.962;2023-05-07T15:18:34;3.53;;;1.40;;
5898;SDS011;2975;50.956;6.962;2023-05-07T15:20:59;2.55;;;1.48;;
5898;SDS011;2975;50.956;6.962;2023-05-07T15:23:25;2.25;;;1.30;;
5898;SDS011;2975;50.956;6.962;2023-05-07T15:25:51;1.63;;;1.52;;
5898;SDS011;2975;50.956;6.962;2023-05-07T15:28:17;1.27;;;1.20;;
5898;SDS011;2975;50.956;6.962;2023-05-07T15:30:43;3.50;;;1.60;;